Time;durP1;ratioP1;P1;durP2;ratioP2;P2;SDS_P1;SDS_P2;PMS_P1;PMS_P2;Temp;Humidity;BMP_temperature;BMP_pressure;BME280_temperature;BME280_humidity;BME280_pressure;Samples;Min_cycle;Max_cycle;Signal;HPM_P1;HPM_P2
2023/01/30 00:01:27;;;;;;;12.07;7.00;;;20.20;99.90;;;;;;5050401;28;20508;-51
2023/01/30 00:03:53;;;;;;;10.88;6.60;;;20.10;99.90;;;;;;5051842;28;20055;-51
2023/01/30 00:06:19;;;;;;;11.65;6.40;;;20.10;99.90;;;;;;5050882;28;20057;-51
2023/01/30 00:08:45;;;;;;;14.57;6.82;;;20.10;99.90;;;;;;5052779;28;20052;-51
2023/01/30 00:11:13;;;;;;;9.60;6.05;;;20.10;99.90;;;;;;5054392;28;20111;-51
2023/01/30 00:13:39;;;;;;;11.32;6.82;;;20.10;99.90;;;;;;5055556;28;20154;-50
2023/01/30 00:16:05;;;;;;;9.52;5.85;;;20.10;99.90;;;;;;5055715;28;20074;-51
2023/01/30 00:18:31;;;;;;;12.32;6.15;;;20.10;99.90;;;;;;5054145;28;20021;-51
2023/01/30 00:20:58;;;;;;;11.45;6.30;;;20.00;99.90;;;;;;5055433;28;20025;-51
2023/01/30 00:23:26;;;;;;;10.50;6.90;;;20.00;99.90;;;;;;5055548;28;20024;-51
2023/01/30 00:25:52;;;;;;;9.70;5.57;;;20.00;99.90;;;;;;5055523;28;20480;-51
2023/01/30 00:28:18;;;;;;;9.88;6.03;;;20.00;99.90;;;;;;5055409;28;20477;-50
2023/01/30 00:30:43;;;;;;;10.52;6.15;;;20.00;99.90;;;;;;5055350;28;20021;-50
2023/01/30 00:33:10;;;;;;;9.85;5.78;;;20.00;99.90;;;;;;5053951;28;20029;-50
2023/01/30 00:35:36;;;;;;;9.68;5.85;;;20.00;99.90;;;;;;5055152;28;20019;-50
2023/01/30 00:38:01;;;;;;;8.48;5.43;;;20.00;99.90;;;;;;5054976;28;20398;-50
2023/01/30 00:40:28;;;;;;;10.40;5.80;;;19.90;99.90;;;;;;5055142;28;20025;-50
2023/01/30 00:48:27;;;;;;;10.38;5.70;;;20.00;99.90;;;;;;5054974;28;20132;-50
2023/01/30 00:50:53;;;;;;;10.15;5.13;;;19.90;99.90;;;;;;5054798;28;20021;-50
2023/01/30 00:53:19;;;;;;;10.65;5.70;;;20.00;99.90;;;;;;5053801;28;20021;-50
2023/01/30 00:55:45;;;;;;;8.60;4.97;;;19.90;99.90;;;;;;5054878;28;20056;-49
2023/01/30 00:58:12;;;;;;;8.30;5.05;;;19.90;99.90;;;;;;5054816;28;20033;-50
2023/01/30 01:00:38;;;;;;;8.10;5.23;;;19.90;99.90;;;;;;5067169;22;20095;-51
2023/01/30 01:03:04;;;;;;;7.90;5.50;;;19.90;99.90;;;;;;5054372;28;20270;-52
2023/01/30 01:05:30;;;;;;;8.18;4.85;;;19.90;99.90;;;;;;5054541;28;20385;-52
2023/01/30 01:07:55;;;;;;;10.00;4.72;;;19.90;99.90;;;;;;5054426;28;20045;-52
2023/01/30 01:10:21;;;;;;;10.20;5.50;;;19.80;99.90;;;;;;5054665;28;20029;-52
2023/01/30 01:12:51;;;;;;;9.25;4.72;;;19.80;99.90;;;;;;5054531;28;20021;-52
2023/01/30 01:15:18;;;;;;;9.45;5.35;;;19.80;99.90;;;;;;5054458;28;20445;-52
2023/01/30 01:17:44;;;;;;;8.60;4.75;;;19.80;99.90;;;;;;5054316;28;20442;-52
2023/01/30 01:20:10;;;;;;;8.32;5.00;;;19.80;99.90;;;;;;5052996;28;20056;-54
2023/01/30 01:22:36;;;;;;;7.72;4.97;;;19.80;99.90;;;;;;5054406;28;20064;-53
2023/01/30 01:25:02;;;;;;;7.97;5.15;;;19.80;99.90;;;;;;5054234;28;20067;-53
2023/01/30 01:27:28;;;;;;;8.50;5.47;;;19.70;99.90;;;;;;5054051;28;20029;-52
2023/01/30 01:29:54;;;;;;;11.00;4.93;;;19.70;99.90;;;;;;5054269;28;20392;-51
2023/01/30 01:32:21;;;;;;;9.43;4.97;;;19.70;99.90;;;;;;5054186;28;20021;-52
2023/01/30 01:34:47;;;;;;;6.28;4.60;;;19.70;99.90;;;;;;5053996;28;20040;-52
2023/01/30 01:37:12;;;;;;;8.48;5.03;;;19.70;99.90;;;;;;5053971;28;20469;-54
2023/01/30 01:42:34;;;;;;;8.70;5.28;;;19.70;99.90;;;;;;5045740;28;20033;-53
2023/01/30 01:45:16;;;;;;;8.15;4.82;;;19.70;99.90;;;;;;5053910;28;20028;-55
2023/01/30 01:47:53;;;;;;;8.68;5.38;;;19.60;99.90;;;;;;5053675;28;20040;-52
2023/01/30 01:50:27;;;;;;;7.28;4.72;;;19.60;99.90;;;;;;5053673;28;20170;-53
2023/01/30 01:52:56;;;;;;;8.85;5.18;;;19.60;99.90;;;;;;5054012;28;20028;-53
2023/01/30 01:55:23;;;;;;;9.15;4.53;;;19.60;99.90;;;;;;5053951;28;20182;-53
2023/01/30 01:58:03;;;;;;;6.47;4.43;;;19.60;99.90;;;;;;5053663;28;20020;-52
2023/01/30 02:00:30;;;;;;;7.72;5.13;;;19.60;99.90;;;;;;5075368;22;20102;-60
2023/01/30 02:02:59;;;;;;;7.60;4.63;;;19.60;99.90;;;;;;5072577;28;20036;-60
2023/01/30 02:05:32;;;;;;;9.73;4.60;;;19.60;99.90;;;;;;5073612;28;20017;-60
2023/01/30 02:08:04;;;;;;;8.07;4.90;;;19.50;99.90;;;;;;5073301;28;20457;-60
2023/01/30 02:10:44;;;;;;;7.68;5.25;;;19.50;99.90;;;;;;5073337;28;20043;-61
2023/01/30 02:13:10;;;;;;;7.90;4.07;;;19.50;99.90;;;;;;5073263;28;20095;-62
2023/01/30 02:15:36;;;;;;;6.47;4.35;;;19.50;99.90;;;;;;5073210;28;20124;-62
2023/01/30 02:18:03;;;;;;;9.00;5.70;;;19.50;99.90;;;;;;5071892;28;20021;-62
2023/01/30 02:20:37;;;;;;;6.80;4.50;;;19.50;99.90;;;;;;5073148;28;20025;-62
2023/01/30 02:23:34;;;;;;;9.48;5.45;;;19.50;99.90;;;;;;5071856;28;20052;-62
2023/01/30 02:26:28;;;;;;;9.85;5.32;;;19.50;99.90;;;;;;5071714;28;20444;-62
2023/01/30 02:29:11;;;;;;;8.48;4.75;;;19.50;99.90;;;;;;5073149;28;20040;-62
2023/01/30 02:32:07;;;;;;;7.97;5.13;;;19.50;99.90;;;;;;5072832;28;20380;-62
2023/01/30 02:35:04;;;;;;;9.23;4.87;;;19.50;99.90;;;;;;5072922;28;20028;-63
2023/01/30 02:37:33;;;;;;;5.93;4.53;;;19.50;99.90;;;;;;5072878;28;20020;-63
2023/01/30 02:40:16;;;;;;;6.65;4.40;;;19.50;99.90;;;;;;5072990;28;20254;-62
2023/01/30 02:43:11;;;;;;;5.80;4.10;;;19.40;99.90;;;;;;5072622;28;20056;-62
2023/01/30 02:46:04;;;;;;;7.75;4.80;;;19.40;99.90;;;;;;5018533;28;20382;-63
2023/01/30 02:48:39;;;;;;;6.50;4.43;;;19.40;99.90;;;;;;5072563;28;20116;-62
2023/01/30 02:51:35;;;;;;;9.50;5.05;;;19.40;99.90;;;;;;5071362;28;20028;-62
2023/01/30 02:54:01;;;;;;;8.45;5.03;;;19.40;99.90;;;;;;5060015;28;20033;-62
2023/01/30 02:56:27;;;;;;;7.80;4.85;;;19.40;99.90;;;;;;5072824;28;20479;-62
2023/01/30 02:59:01;;;;;;;6.78;4.60;;;19.40;99.90;;;;;;5072616;28;20028;-62
2023/01/30 03:01:55;;;;;;;7.07;4.65;;;19.40;99.90;;;;;;5066176;22;20102;-51
2023/01/30 03:04:30;;;;;;;6.72;4.30;;;19.40;99.90;;;;;;5052449;28;20044;-51
2023/01/30 03:07:25;;;;;;;7.10;4.63;;;19.30;99.90;;;;;;5052950;28;20024;-51
2023/01/30 03:10:08;;;;;;;8.10;4.78;;;19.30;99.90;;;;;;5034538;28;20041;-52
2023/01/30 03:12:42;;;;;;;6.03;4.45;;;19.30;99.90;;;;;;5052451;28;20017;-50
2023/01/30 03:15:25;;;;;;;7.20;4.45;;;19.30;99.90;;;;;;5052326;28;20021;-49
2023/01/30 03:17:52;;;;;;;6.25;4.43;;;19.30;99.90;;;;;;5052246;28;20021;-49
2023/01/30 03:20:19;;;;;;;6.63;4.60;;;19.30;99.90;;;;;;5052210;28;20021;-49
2023/01/30 03:22:45;;;;;;;7.28;4.72;;;19.30;99.90;;;;;;5052159;28;20029;-50
2023/01/30 03:25:19;;;;;;;10.40;5.45;;;19.30;99.90;;;;;;5034368;28;20500;-49
2023/01/30 03:27:46;;;;;;;7.75;5.35;;;19.20;99.90;;;;;;5052141;28;20036;-48
2023/01/30 03:30:12;;;;;;;7.88;5.28;;;19.30;99.90;;;;;;5052161;28;20443;-48
2023/01/30 03:32:38;;;;;;;7.88;4.45;;;19.20;99.90;;;;;;5052186;28;20476;-49
2023/01/30 03:35:04;;;;;;;6.78;4.85;;;19.30;99.90;;;;;;5052048;28;20040;-49
2023/01/30 03:37:30;;;;;;;8.65;4.55;;;19.20;99.90;;;;;;5052226;28;20174;-49
2023/01/30 03:39:56;;;;;;;7.20;4.95;;;19.20;99.90;;;;;;5034258;28;20503;-49
2023/01/30 03:42:22;;;;;;;7.07;4.90;;;19.20;99.90;;;;;;5052015;28;20021;-49
2023/01/30 03:44:48;;;;;;;7.43;5.18;;;19.20;99.90;;;;;;5054979;28;20112;-49
2023/01/30 03:47:13;;;;;;;8.55;5.32;;;19.20;99.90;;;;;;5056036;28;20021;-49
2023/01/30 03:49:39;;;;;;;6.63;4.50;;;19.20;99.90;;;;;;5056098;28;20036;-49
2023/01/30 03:52:05;;;;;;;7.95;4.82;;;19.20;99.90;;;;;;5056117;28;20024;-49
2023/01/30 03:54:30;;;;;;;8.02;4.88;;;19.20;99.90;;;;;;5056194;28;20021;-50
2023/01/30 03:56:56;;;;;;;9.15;5.60;;;19.20;99.90;;;;;;5055938;28;20048;-49
2023/01/30 03:59:22;;;;;;;8.90;5.60;;;19.10;99.90;;;;;;5067962;23;20402;-53
2023/01/30 04:01:48;;;;;;;7.53;4.63;;;19.10;99.90;;;;;;5053702;28;20508;-52
2023/01/30 04:04:13;;;;;;;8.00;5.40;;;19.10;99.90;;;;;;5055655;28;20100;-53
2023/01/30 04:06:39;;;;;;;8.43;5.07;;;19.10;99.90;;;;;;5055697;28;20040;-51
2023/01/30 04:09:05;;;;;;;7.93;5.10;;;19.10;99.90;;;;;;5055486;28;20032;-52
2023/01/30 04:11:31;;;;;;;7.07;4.82;;;19.10;99.90;;;;;;5055866;28;20107;-51
2023/01/30 04:13:56;;;;;;;6.68;4.45;;;19.10;99.90;;;;;;5055518;28;20029;-51
2023/01/30 04:16:26;;;;;;;6.53;4.93;;;19.10;99.90;;;;;;5055492;28;20021;-52
2023/01/30 04:18:52;;;;;;;8.02;5.07;;;19.10;99.90;;;;;;5037435;28;20021;-50
2023/01/30 04:21:18;;;;;;;8.57;5.40;;;19.00;99.90;;;;;;5055261;28;20021;-51
2023/01/30 04:23:44;;;;;;;7.60;5.03;;;19.10;99.90;;;;;;5037520;28;20021;-51
2023/01/30 04:26:12;;;;;;;6.82;4.30;;;19.10;99.90;;;;;;5055223;28;20490;-50
2023/01/30 04:28:38;;;;;;;;;;;19.10;99.90;;;;;;5055689;28;20110;-51
2023/01/30 04:31:04;;;;;;;7.68;4.28;;;19.10;99.90;;;;;;5055394;28;19958;-50
2023/01/30 04:33:34;;;;;;;8.13;4.72;;;19.10;99.90;;;;;;5055305;28;20032;-51
2023/01/30 04:36:00;;;;;;;6.80;4.68;;;19.10;99.90;;;;;;5055352;28;20013;-51
2023/01/30 04:38:27;;;;;;;7.90;4.70;;;19.00;99.90;;;;;;5055054;28;20492;-51
2023/01/30 04:40:55;;;;;;;8.40;4.40;;;19.00;99.90;;;;;;5055064;28;20023;-53
2023/01/30 04:43:22;;;;;;;10.20;5.50;;;19.00;99.90;;;;;;5055022;28;20029;-51
2023/01/30 04:45:50;;;;;;;6.75;4.30;;;19.00;99.90;;;;;;5054978;28;20024;-51
2023/01/30 04:48:17;;;;;;;6.95;4.50;;;19.00;99.90;;;;;;5054738;28;20182;-51
2023/01/30 04:50:46;;;;;;;7.65;5.13;;;19.00;99.90;;;;;;5054925;28;20074;-51
2023/01/30 04:53:12;;;;;;;8.40;4.93;;;18.90;99.90;;;;;;5054646;28;20044;-52
2023/01/30 04:55:38;;;;;;;7.80;4.28;;;19.00;99.90;;;;;;5054640;28;20025;-52
2023/01/30 04:58:03;;;;;;;7.75;4.65;;;19.00;99.90;;;;;;5054915;28;20496;-53
2023/01/30 05:00:30;;;;;;;7.07;4.85;;;18.90;99.90;;;;;;5055645;28;20053;-52
2023/01/30 05:02:56;;;;;;;7.38;4.88;;;18.90;99.90;;;;;;5036677;28;20492;-49
2023/01/30 05:05:23;;;;;;;6.15;4.22;;;18.90;99.90;;;;;;5054531;28;20028;-49
2023/01/30 05:07:49;;;;;;;7.72;5.10;;;18.90;99.90;;;;;;5054466;28;20029;-50
2023/01/30 05:10:15;;;;;;;8.02;4.82;;;18.90;99.90;;;;;;5054493;28;20089;-50
2023/01/30 05:12:41;;;;;;;8.43;4.85;;;18.90;99.90;;;;;;5036569;28;20021;-50
2023/01/30 05:15:08;;;;;;;8.38;5.20;;;18.80;99.90;;;;;;5054229;28;20103;-51
2023/01/30 05:17:34;;;;;;;7.18;4.90;;;18.90;99.90;;;;;;5054433;28;20029;-52
2023/01/30 05:20:00;;;;;;;8.13;5.50;;;18.80;99.90;;;;;;5054344;28;20431;-52
2023/01/30 05:22:26;;;;;;;8.43;5.03;;;18.80;99.90;;;;;;5054409;28;20013;-54
2023/01/30 05:24:52;;;;;;;8.07;4.90;;;18.80;99.90;;;;;;5036237;28;20484;-52
2023/01/30 05:27:18;;;;;;;9.23;5.57;;;18.80;99.90;;;;;;5036373;28;20078;-51
2023/01/30 05:29:43;;;;;;;7.80;4.90;;;18.80;99.90;;;;;;5036380;28;20136;-51
2023/01/30 05:32:14;;;;;;;8.43;5.15;;;18.80;99.90;;;;;;5054165;28;20033;-51
2023/01/30 05:34:40;;;;;;;7.32;4.68;;;18.90;99.90;;;;;;5036099;28;20032;-51
2023/01/30 05:37:06;;;;;;;8.05;4.60;;;18.80;99.90;;;;;;5054042;28;20326;-52
2023/01/30 05:39:31;;;;;;;8.45;5.55;;;18.80;99.90;;;;;;5053880;28;20108;-50
2023/01/30 05:41:57;;;;;;;7.15;4.57;;;18.80;99.90;;;;;;5053962;28;20473;-50
2023/01/30 05:44:23;;;;;;;7.68;4.20;;;18.80;99.90;;;;;;5053898;28;20033;-50
2023/01/30 05:46:49;;;;;;;7.72;4.80;;;18.80;99.90;;;;;;5035944;28;20021;-51
2023/01/30 05:49:15;;;;;;;8.52;5.63;;;18.80;99.90;;;;;;5053668;28;20090;-50
2023/01/30 05:51:41;;;;;;;8.88;5.72;;;18.80;99.90;;;;;;5053701;28;20021;-52
2023/01/30 05:54:07;;;;;;;9.05;6.03;;;18.80;99.90;;;;;;5053787;28;20477;-52
2023/01/30 05:56:33;;;;;;;7.70;4.70;;;18.80;99.90;;;;;;5053754;28;20326;-52
2023/01/30 05:59:00;;;;;;;7.82;4.78;;;18.80;99.90;;;;;;5053461;28;20047;-52
2023/01/30 06:01:27;;;;;;;8.30;5.13;;;18.80;99.90;;;;;;5053286;28;20036;-52
2023/01/30 06:03:54;;;;;;;8.13;5.20;;;18.80;99.90;;;;;;5053387;28;20104;-52
2023/01/30 06:06:20;;;;;;;7.80;5.22;;;18.80;99.90;;;;;;5052930;28;20060;-51
2023/01/30 06:08:46;;;;;;;8.05;4.53;;;18.80;99.90;;;;;;5053389;28;20472;-50
2023/01/30 06:11:16;;;;;;;8.35;4.80;;;18.80;99.90;;;;;;5053436;28;20032;-51
2023/01/30 06:13:42;;;;;;;8.32;5.05;;;18.70;99.90;;;;;;5053206;28;20135;-51
2023/01/30 06:16:10;;;;;;;10.15;5.38;;;18.80;99.90;;;;;;5035464;28;20396;-50
2023/01/30 06:18:36;;;;;;;6.90;4.57;;;18.80;99.90;;;;;;5053626;28;20461;-51
2023/01/30 06:21:02;;;;;;;8.40;4.95;;;18.80;99.90;;;;;;5053172;28;20032;-52
2023/01/30 06:23:28;;;;;;;8.65;4.60;;;18.80;99.90;;;;;;5053034;28;20035;-50
2023/01/30 06:25:54;;;;;;;6.53;4.15;;;18.70;99.90;;;;;;5052889;28;20024;-49
2023/01/30 06:28:21;;;;;;;8.52;4.65;;;18.70;99.90;;;;;;5052852;28;20029;-50
2023/01/30 06:30:47;;;;;;;7.27;3.87;;;18.70;99.90;;;;;;5053208;28;20419;-49
2023/01/30 06:33:14;;;;;;;7.78;4.30;;;18.70;99.90;;;;;;5035012;28;20060;-49
2023/01/30 06:35:41;;;;;;;6.95;4.78;;;18.70;99.90;;;;;;5035076;28;20025;-49
2023/01/30 06:38:12;;;;;;;7.93;4.72;;;18.70;99.90;;;;;;5052949;28;20021;-49
2023/01/30 06:40:38;;;;;;;7.13;4.47;;;18.70;99.90;;;;;;5052918;28;20025;-49
2023/01/30 06:43:04;;;;;;;5.13;3.70;;;18.70;99.90;;;;;;5052562;28;20025;-50
2023/01/30 06:45:30;;;;;;;6.13;3.97;;;18.70;99.90;;;;;;5052563;28;20040;-49
2023/01/30 06:47:56;;;;;;;5.70;3.88;;;18.70;99.90;;;;;;5052491;28;20061;-50
2023/01/30 06:50:25;;;;;;;6.10;3.58;;;18.70;99.90;;;;;;5052614;28;20032;-50
2023/01/30 06:52:52;;;;;;;5.55;3.58;;;18.70;99.90;;;;;;5052496;28;20024;-49
2023/01/30 06:55:20;;;;;;;5.10;3.63;;;18.70;99.90;;;;;;5052470;28;20421;-50
2023/01/30 06:57:46;;;;;;;6.30;3.38;;;18.70;99.90;;;;;;5052576;28;20032;-50
2023/01/30 07:00:18;;;;;;;5.88;3.47;;;18.70;99.90;;;;;;5034420;28;20037;-49
2023/01/30 07:02:44;;;;;;;9.00;4.10;;;18.60;99.90;;;;;;5052297;28;20029;-48
2023/01/30 07:05:11;;;;;;;7.35;4.07;;;18.60;99.90;;;;;;5052497;28;20362;-50
2023/01/30 07:07:37;;;;;;;6.35;3.55;;;18.60;99.90;;;;;;5052087;28;20021;-50
2023/01/30 07:10:05;;;;;;;7.82;3.65;;;18.60;99.90;;;;;;5052257;28;20111;-51
2023/01/30 07:12:31;;;;;;;;;;;18.60;99.90;;;;;;5052830;28;20017;-50
2023/01/30 07:14:56;;;;;;;5.68;3.88;;;18.60;99.90;;;;;;5052193;28;20379;-51
2023/01/30 07:17:23;;;;;;;5.68;3.38;;;18.60;99.90;;;;;;5051861;28;20036;-51
2023/01/30 07:19:49;;;;;;;8.02;3.35;;;18.60;99.90;;;;;;5051543;28;20488;-52
2023/01/30 07:22:15;;;;;;;4.65;3.28;;;18.60;99.90;;;;;;5052643;28;20060;-52
2023/01/30 07:24:44;;;;;;;9.02;3.55;;;18.60;99.90;;;;;;5052450;28;20052;-53
2023/01/30 07:27:11;;;;;;;6.10;3.75;;;18.60;99.90;;;;;;5034293;28;20079;-54
2023/01/30 07:29:38;;;;;;;6.03;3.60;;;18.60;99.90;;;;;;5052047;28;20515;-53
2023/01/30 07:32:05;;;;;;;7.07;4.07;;;18.60;99.90;;;;;;5052099;28;20029;-53
2023/01/30 07:34:31;;;;;;;5.72;3.03;;;18.60;99.90;;;;;;5051996;28;20439;-53
2023/01/30 07:36:57;;;;;;;5.22;3.50;;;18.50;99.90;;;;;;5051963;28;20040;-53
2023/01/30 07:39:23;;;;;;;5.95;3.22;;;18.50;99.90;;;;;;5052046;28;20029;-53
2023/01/30 07:41:49;;;;;;;6.20;3.58;;;18.50;99.90;;;;;;5051777;28;20086;-52
2023/01/30 07:44:15;;;;;;;4.53;3.13;;;18.50;99.90;;;;;;5051998;28;20048;-52
2023/01/30 07:46:40;;;;;;;5.95;3.90;;;18.50;99.90;;;;;;5052120;28;20419;-53
2023/01/30 07:49:07;;;;;;;7.20;3.42;;;18.50;99.90;;;;;;5051802;28;20083;-53
2023/01/30 07:51:34;;;;;;;5.50;3.38;;;18.50;99.90;;;;;;5034070;28;20389;-53
2023/01/30 07:54:00;;;;;;;6.03;3.53;;;18.50;99.90;;;;;;5051933;28;20524;-53
2023/01/30 07:56:27;;;;;;;4.03;2.95;;;18.50;99.90;;;;;;5051777;28;20017;-53
2023/01/30 07:58:54;;;;;;;6.90;3.53;;;18.50;99.90;;;;;;5051765;28;20025;-53
2023/01/30 08:01:20;;;;;;;6.82;3.35;;;18.50;99.90;;;;;;5051504;28;20397;-52
2023/01/30 08:03:48;;;;;;;5.30;3.25;;;18.50;99.90;;;;;;5033853;28;20120;-53
2023/01/30 08:06:15;;;;;;;4.88;3.97;;;18.50;99.90;;;;;;5052005;28;20032;-53
2023/01/30 08:08:41;;;;;;;4.82;3.38;;;18.50;99.90;;;;;;5051858;28;20050;-54
2023/01/30 08:11:07;;;;;;;6.20;3.35;;;18.50;99.90;;;;;;5051599;28;20032;-54
2023/01/30 08:13:33;;;;;;;7.00;3.00;;;18.50;99.90;;;;;;5051569;28;20389;-53
2023/01/30 08:16:03;;;;;;;4.22;3.03;;;18.50;99.90;;;;;;5051582;28;20104;-53
2023/01/30 08:18:31;;;;;;;5.97;3.58;;;18.50;99.90;;;;;;5051481;28;20442;-53
2023/01/30 08:21:00;;;;;;;5.10;3.13;;;18.50;99.90;;;;;;5051698;28;20054;-53
2023/01/30 08:23:26;;;;;;;3.72;2.80;;;18.50;99.90;;;;;;5051451;28;20079;-52
2023/01/30 08:25:57;;;;;;;9.40;2.97;;;18.50;99.90;;;;;;5051590;28;20029;-55
2023/01/30 08:28:23;;;;;;;6.13;3.65;;;18.50;99.90;;;;;;5051392;28;20076;-51
2023/01/30 08:30:52;;;;;;;4.75;3.35;;;18.50;99.90;;;;;;5054169;28;20052;-52
2023/01/30 08:33:18;;;;;;;5.82;3.17;;;18.50;99.90;;;;;;5055464;28;20432;-53
2023/01/30 08:35:44;;;;;;;7.88;3.20;;;18.50;99.90;;;;;;5055238;28;20029;-51
2023/01/30 08:38:10;;;;;;;5.38;3.63;;;18.50;99.90;;;;;;5054875;28;20071;-51
2023/01/30 08:40:36;;;;;;;6.40;3.80;;;18.50;99.90;;;;;;5054971;28;20056;-53
2023/01/30 08:43:02;;;;;;;5.80;3.45;;;18.50;99.90;;;;;;5054851;28;20457;-53
2023/01/30 08:45:28;;;;;;;5.50;3.47;;;18.50;99.90;;;;;;5054821;28;20033;-53
2023/01/30 08:47:58;;;;;;;5.13;3.17;;;18.60;99.90;;;;;;5054867;28;20389;-54
2023/01/30 08:50:24;;;;;;;9.05;4.03;;;18.50;99.90;;;;;;5036911;28;20028;-54
2023/01/30 08:52:50;;;;;;;6.80;3.28;;;18.60;99.90;;;;;;5054929;28;20024;-54
2023/01/30 08:55:16;;;;;;;7.57;3.60;;;18.50;99.90;;;;;;5055026;28;20588;-54
2023/01/30 08:57:42;;;;;;;6.18;3.70;;;18.50;99.90;;;;;;5054731;28;20048;-54
2023/01/30 09:00:09;;;;;;;5.07;3.50;;;18.60;99.90;;;;;;5054637;28;20091;-53
2023/01/30 09:02:35;;;;;;;7.15;3.83;;;18.60;99.90;;;;;;5054827;28;20021;-51
2023/01/30 09:05:01;;;;;;;5.65;3.40;;;18.60;99.90;;;;;;5054582;28;20025;-54
2023/01/30 09:07:27;;;;;;;6.03;3.90;;;18.60;99.90;;;;;;5054572;28;20382;-54
2023/01/30 09:09:54;;;;;;;6.15;3.33;;;18.60;99.90;;;;;;5054439;28;20506;-52
2023/01/30 09:12:20;;;;;;;6.22;4.00;;;18.60;99.90;;;;;;5054531;28;20025;-53
2023/01/30 09:14:46;;;;;;;5.70;3.67;;;18.50;99.90;;;;;;5054510;28;20052;-53
2023/01/30 09:17:12;;;;;;;7.28;4.45;;;18.60;99.90;;;;;;5054383;28;20056;-52
2023/01/30 09:19:37;;;;;;;5.53;4.30;;;18.50;99.90;;;;;;5054429;28;20031;-53
2023/01/30 09:22:03;;;;;;;8.52;4.53;;;18.60;99.90;;;;;;5054212;28;20025;-53
2023/01/30 09:24:29;;;;;;;7.00;5.07;;;18.60;99.90;;;;;;5054359;28;20366;-53
2023/01/30 09:26:57;;;;;;;9.43;4.80;;;18.60;99.90;;;;;;5036065;28;20035;-54
2023/01/30 09:29:26;;;;;;;;;;;18.60;99.90;;;;;;5036551;28;20124;-53
2023/01/30 09:31:53;;;;;;;6.75;4.55;;;18.60;99.90;;;;;;5054214;28;19912;-54
2023/01/30 09:34:19;;;;;;;8.02;5.07;;;18.60;99.90;;;;;;5054256;28;20029;-54
2023/01/30 09:36:44;;;;;;;8.23;5.13;;;18.60;99.90;;;;;;5054159;28;20556;-54
2023/01/30 09:39:10;;;;;;;8.00;5.07;;;18.60;99.90;;;;;;5053985;28;20572;-53
2023/01/30 09:42:04;;;;;;;8.00;4.85;;;18.60;99.90;;;;;;5052846;28;20025;-53
2023/01/30 09:44:48;;;;;;;9.65;5.05;;;18.60;99.90;;;;;;5053884;28;20036;-53
2023/01/30 09:47:38;;;;;;;8.98;5.45;;;18.60;99.90;;;;;;5053811;28;20029;-54
2023/01/30 09:50:34;;;;;;;9.65;5.72;;;18.60;99.90;;;;;;5053265;28;20045;-54
2023/01/30 09:53:14;;;;;;;8.97;5.13;;;18.60;99.90;;;;;;5053705;28;20067;-53
2023/01/30 09:55:41;;;;;;;9.10;5.70;;;18.60;99.90;;;;;;5035686;28;20056;-52
2023/01/30 09:58:40;;;;;;;9.52;5.65;;;18.60;99.90;;;;;;5053739;28;20021;-53
2023/01/30 10:01:12;;;;;;;8.63;5.60;;;18.60;99.90;;;;;;5053408;28;20401;-53
2023/01/30 10:03:51;;;;;;;8.45;5.57;;;18.60;99.90;;;;;;5053402;28;20365;-53
2023/01/30 10:06:17;;;;;;;8.57;6.38;;;18.70;99.90;;;;;;5053612;28;20057;-53
2023/01/30 10:09:09;;;;;;;10.93;6.00;;;18.60;99.90;;;;;;5053178;28;20481;-54
2023/01/30 10:12:09;;;;;;;9.85;5.55;;;18.60;99.90;;;;;;5053470;28;20032;-54
2023/01/30 10:14:48;;;;;;;10.35;5.97;;;18.60;99.90;;;;;;5049542;28;20036;-54
2023/01/30 10:17:14;;;;;;;8.85;6.03;;;18.60;99.90;;;;;;5053175;28;20108;-53
2023/01/30 10:19:48;;;;;;;10.30;6.32;;;18.70;99.90;;;;;;5053023;28;20112;-52
2023/01/30 10:22:20;;;;;;;9.65;7.03;;;18.70;99.90;;;;;;5053029;28;20040;-53
2023/01/30 10:24:51;;;;;;;10.25;6.65;;;18.70;99.90;;;;;;5053065;28;20477;-53
2023/01/30 10:27:19;;;;;;;9.95;5.80;;;18.70;99.90;;;;;;5052998;28;20491;-52
2023/01/30 10:29:55;;;;;;;8.20;5.85;;;18.60;99.90;;;;;;5052765;28;20404;-53
2023/01/30 10:32:30;;;;;;;11.43;6.45;;;18.70;99.90;;;;;;5053148;28;20473;-54
2023/01/30 10:35:05;;;;;;;9.60;5.47;;;18.70;99.90;;;;;;5053036;28;20053;-53
2023/01/30 10:37:49;;;;;;;10.50;6.38;;;18.70;99.90;;;;;;5052932;28;20029;-53
2023/01/30 10:40:25;;;;;;;8.30;5.82;;;18.80;99.90;;;;;;5052765;28;20381;-54
2023/01/30 10:43:03;;;;;;;9.95;6.35;;;18.80;99.90;;;;;;5053060;28;20530;-52
2023/01/30 10:45:52;;;;;;;11.45;6.03;;;18.80;99.90;;;;;;5052719;28;20060;-53
2023/01/30 10:48:41;;;;;;;9.88;6.30;;;18.80;99.90;;;;;;5024143;28;20048;-53
2023/01/30 10:51:23;;;;;;;7.25;5.93;;;18.80;99.90;;;;;;5052492;28;20524;-53
2023/01/30 10:53:57;;;;;;;8.52;5.93;;;18.80;99.90;;;;;;5052373;28;20037;-52
2023/01/30 10:56:52;;;;;;;9.13;6.20;;;18.80;99.90;;;;;;5052651;28;20048;-52
2023/01/30 10:59:23;;;;;;;12.88;6.57;;;18.90;99.90;;;;;;5052365;28;20053;-53
2023/01/30 11:02:32;;;;;;;7.30;5.32;;;18.90;99.90;;;;;;5052219;28;20128;-52
2023/01/30 11:05:02;;;;;;;7.93;5.13;;;18.90;99.90;;;;;;4990884;28;20022;-53
2023/01/30 11:07:32;;;;;;;9.88;5.35;;;19.00;99.90;;;;;;5045076;28;20029;-53
2023/01/30 11:09:59;;;;;;;12.27;6.20;;;19.00;99.90;;;;;;5052265;28;20051;-54
2023/01/30 11:12:25;;;;;;;10.68;6.22;;;19.00;99.90;;;;;;5052422;28;20052;-53
2023/01/30 11:14:55;;;;;;;9.05;5.88;;;19.10;99.90;;;;;;5052489;28;20052;-53
2023/01/30 11:17:29;;;;;;;10.68;6.13;;;19.00;99.90;;;;;;5052351;28;20100;-53
2023/01/30 11:20:00;;;;;;;7.80;5.35;;;19.10;99.90;;;;;;5052184;28;20013;-54
2023/01/30 11:22:29;;;;;;;7.57;4.75;;;19.20;99.90;;;;;;5051997;28;20064;-55
2023/01/30 11:25:21;;;;;;;7.63;5.00;;;19.20;99.90;;;;;;5052214;28;20025;-53
2023/01/30 11:28:02;;;;;;;7.68;4.93;;;19.20;99.90;;;;;;5032119;28;20079;-53
2023/01/30 11:30:35;;;;;;;8.32;5.50;;;19.30;99.90;;;;;;5052074;28;20532;-53
2023/01/30 11:33:09;;;;;;;10.00;6.40;;;19.40;99.90;;;;;;5052068;28;20023;-53
2023/01/30 11:35:42;;;;;;;10.75;5.03;;;19.40;99.90;;;;;;5051944;28;20025;-55
2023/01/30 11:38:20;;;;;;;7.30;5.28;;;19.40;99.90;;;;;;5051869;28;20071;-53
2023/01/30 11:40:45;;;;;;;;;;;19.50;99.90;;;;;;5052259;28;20504;-54
2023/01/30 11:43:13;;;;;;;7.95;5.15;;;19.50;99.90;;;;;;5050502;28;19905;-55
2023/01/30 11:45:46;;;;;;;7.65;4.80;;;19.50;99.90;;;;;;5051960;28;20025;-53
2023/01/30 11:48:20;;;;;;;9.45;5.22;;;19.60;99.90;;;;;;5051673;28;20036;-53
2023/01/30 11:50:55;;;;;;;8.60;5.78;;;19.50;99.90;;;;;;5051733;28;20021;-54
2023/01/30 11:53:42;;;;;;;9.73;5.63;;;19.60;99.90;;;;;;5051796;28;20045;-53
2023/01/30 11:56:15;;;;;;;9.35;4.97;;;19.60;99.90;;;;;;5033962;28;20020;-53
2023/01/30 11:58:46;;;;;;;8.43;5.13;;;19.60;99.90;;;;;;5051773;28;20029;-54
2023/01/30 12:01:15;;;;;;;8.40;5.45;;;19.70;99.90;;;;;;5051433;28;20049;-53
2023/01/30 12:03:59;;;;;;;6.90;4.70;;;19.70;99.90;;;;;;5051603;28;20418;-53
2023/01/30 12:06:31;;;;;;;9.13;5.10;;;19.70;99.90;;;;;;5055708;28;20381;-54
2023/01/30 12:08:57;;;;;;;7.88;5.90;;;19.70;99.90;;;;;;5055674;28;20033;-53
2023/01/30 12:11:44;;;;;;;7.35;5.20;;;19.70;99.90;;;;;;5055685;28;20029;-53
2023/01/30 12:14:18;;;;;;;8.10;5.70;;;19.70;99.90;;;;;;5055416;28;20028;-53
2023/01/30 12:17:02;;;;;;;8.57;5.32;;;19.70;99.90;;;;;;5055424;28;20334;-54
2023/01/30 12:19:54;;;;;;;10.93;5.93;;;19.70;99.90;;;;;;5037766;28;20029;-54
2023/01/30 12:22:44;;;;;;;7.05;5.13;;;19.70;99.90;;;;;;5055285;28;20017;-51
2023/01/30 12:25:22;;;;;;;8.27;5.50;;;19.70;99.90;;;;;;5055101;28;20025;-53
2023/01/30 12:28:31;;;;;;;12.20;6.32;;;19.70;99.90;;;;;;5055057;28;20117;-53
2023/01/30 12:31:24;;;;;;;8.15;5.15;;;19.70;99.90;;;;;;5054515;28;20481;-53
2023/01/30 12:33:50;;;;;;;8.25;5.78;;;19.70;99.90;;;;;;5007804;28;20032;-53
2023/01/30 12:36:43;;;;;;;8.13;4.97;;;19.70;99.90;;;;;;5054475;28;20025;-53
2023/01/30 12:39:19;;;;;;;8.25;5.50;;;19.70;99.90;;;;;;5053265;28;20021;-53
2023/01/30 12:41:53;;;;;;;6.88;5.03;;;19.80;99.90;;;;;;5054660;28;20057;-53
2023/01/30 12:44:19;;;;;;;9.55;6.47;;;19.80;99.90;;;;;;5054835;28;20033;-54
2023/01/30 12:47:12;;;;;;;10.40;5.20;;;19.80;99.90;;;;;;5054298;28;20078;-54
2023/01/30 12:50:07;;;;;;;13.48;6.35;;;19.80;99.90;;;;;;5054476;28;20069;-54
2023/01/30 12:52:50;;;;;;;15.10;5.85;;;19.80;99.90;;;;;;5054338;28;20028;-52
2023/01/30 12:55:54;;;;;;;10.02;5.80;;;19.80;99.90;;;;;;5052845;28;20563;-52
2023/01/30 12:58:42;;;;;;;9.20;5.50;;;19.80;99.90;;;;;;5057147;28;20131;-54
2023/01/30 13:01:32;;;;;;;8.35;5.22;;;19.80;99.90;;;;;;5045247;28;20048;-52
2023/01/30 13:04:32;;;;;;;11.05;5.28;;;19.80;99.90;;;;;;5054860;28;20056;-50
2023/01/30 13:07:23;;;;;;;16.02;5.53;;;19.80;99.90;;;;;;5047301;28;20488;-54
2023/01/30 13:10:10;;;;;;;7.57;5.43;;;19.90;99.90;;;;;;5039550;28;20463;-51
2023/01/30 13:12:47;;;;;;;;;;;19.90;99.90;;;;;;5054746;28;20033;-50
2023/01/30 13:15:30;;;;;;;9.80;5.40;;;19.90;99.90;;;;;;5053650;28;20349;-50
2023/01/30 13:18:19;;;;;;;9.88;5.47;;;19.90;99.90;;;;;;5049624;28;20482;-53